createdAt,value
2022-10-21T00:01:42.838Z,73.90
2022-10-21T00:04:09.869Z,73.75
2022-10-21T00:06:36.928Z,73.91
2022-10-21T00:09:03.906Z,73.96
2022-10-21T00:11:30.811Z,74.13
2022-10-21T00:13:57.695Z,74.11
2022-10-21T00:16:24.409Z,74.07
2022-10-21T00:18:51.211Z,74.21
2022-10-21T00:21:19.853Z,74.26
2022-10-21T00:23:47.343Z,74.25
2022-10-21T00:26:14.862Z,74.28
2022-10-21T00:28:42.124Z,74.43
2022-10-21T00:31:09.943Z,74.71
2022-10-21T00:33:37.154Z,74.69
2022-10-21T00:36:04.645Z,74.91
2022-10-21T00:38:31.945Z,74.96
2022-10-21T00:40:59.335Z,74.91
2022-10-21T00:43:26.841Z,74.96
2022-10-21T00:45:56.769Z,75.18
2022-10-21T00:48:35.976Z,75.42
2022-10-21T00:51:06.055Z,75.50
2022-10-21T00:53:34.220Z,75.60
2022-10-21T00:56:04.016Z,75.42
2022-10-21T00:58:33.592Z,75.44
2022-10-21T01:01:01.756Z,75.47
2022-10-21T01:03:29.753Z,75.47
2022-10-21T01:05:57.705Z,75.37
2022-10-21T01:08:24.814Z,75.55
2022-10-21T01:10:52.158Z,75.48
2022-10-21T01:13:37.412Z,75.54
2022-10-21T01:16:13.568Z,75.53
2022-10-21T01:19:03.811Z,75.74
2022-10-21T01:21:30.691Z,75.91
2022-10-21T01:23:57.393Z,75.99
2022-10-21T01:26:27.441Z,75.86
2022-10-21T01:29:03.548Z,76.26
2022-10-21T01:31:35.416Z,76.15
2022-10-21T01:34:05.219Z,76.38
2022-10-21T01:36:50.642Z,76.38
2022-10-21T01:39:28.415Z,76.58
2022-10-21T01:42:00.726Z,76.40
2022-10-21T01:44:34.711Z,76.71
2022-10-21T01:47:13.900Z,76.60
2022-10-21T01:49:44.247Z,76.68
2022-10-21T01:52:11.931Z,76.71
2022-10-21T01:54:41.179Z,76.69
2022-10-21T01:57:08.579Z,76.89
2022-10-21T01:59:35.891Z,76.98
2022-10-21T02:02:04.733Z,76.86
2022-10-21T02:04:33.303Z,76.99
2022-10-21T02:07:00.181Z,77.30
2022-10-21T02:09:27.136Z,77.36
2022-10-21T02:11:56.689Z,77.56
2022-10-21T02:14:25.611Z,77.56
2022-10-21T02:16:54.892Z,77.67
2022-10-21T02:19:21.878Z,77.47
2022-10-21T02:21:50.089Z,77.67
2022-10-21T02:24:21.952Z,77.48
2022-10-21T02:26:49.172Z,77.42
2022-10-21T02:29:21.668Z,77.45
2022-10-21T02:32:08.855Z,77.49
2022-10-21T02:34:54.591Z,77.46
2022-10-21T02:37:32.095Z,77.66
2022-10-21T02:40:09.523Z,77.55
2022-10-21T02:42:39.896Z,77.55
2022-10-21T02:45:07.322Z,77.93
2022-10-21T02:47:36.398Z,77.95
2022-10-21T02:50:03.818Z,77.99
2022-10-21T02:52:30.488Z,78.05
2022-10-21T02:54:57.503Z,77.89
2022-10-21T02:57:24.269Z,77.98
2022-10-21T02:59:51.004Z,78.20
2022-10-21T03:02:18.216Z,78.37
2022-10-21T03:04:44.918Z,78.16
2022-10-21T03:07:11.735Z,78.39
2022-10-21T03:09:38.443Z,78.27
2022-10-21T03:12:05.387Z,78.35
2022-10-21T03:14:32.337Z,78.32
2022-10-21T03:16:59.227Z,78.37
2022-10-21T03:19:26.243Z,78.35
2022-10-21T03:21:52.967Z,78.30
2022-10-21T03:24:28.605Z,78.40
2022-10-21T03:26:56.470Z,78.75
2022-10-21T03:29:23.479Z,78.64
2022-10-21T03:31:50.214Z,78.79
2022-10-21T03:34:17.240Z,78.70
2022-10-21T03:36:44.003Z,78.62
2022-10-21T03:39:11.703Z,78.72
2022-10-21T03:41:38.682Z,78.87
2022-10-21T03:44:05.404Z,78.85
2022-10-21T03:46:32.240Z,78.84
2022-10-21T03:49:02.839Z,79.10
2022-10-21T03:51:32.365Z,79.10
2022-10-21T03:53:59.169Z,78.98
2022-10-21T03:56:26.547Z,79.02
2022-10-21T03:58:58.411Z,79.08
2022-10-21T04:01:26.057Z,79.05
2022-10-21T04:03:53.503Z,79.15
2022-10-21T04:06:20.463Z,79.13
2022-10-21T04:08:47.515Z,79.32
2022-10-21T04:11:14.334Z,79.27
2022-10-21T04:13:41.292Z,79.44
2022-10-21T04:16:10.594Z,79.36
2022-10-21T04:18:37.483Z,79.65
2022-10-21T04:21:04.508Z,79.55
2022-10-21T04:23:31.298Z,79.70
2022-10-21T04:25:58.310Z,79.61
2022-10-21T04:28:25.489Z,79.55
2022-10-21T04:30:52.520Z,79.44
2022-10-21T04:33:19.294Z,79.53
2022-10-21T04:35:46.890Z,79.63
2022-10-21T04:38:13.852Z,79.83
2022-10-21T04:40:40.889Z,79.54
2022-10-21T04:43:07.680Z,79.85
2022-10-21T04:45:34.583Z,80.00
2022-10-21T04:48:01.355Z,80.24
2022-10-21T04:50:28.559Z,80.27
2022-10-21T04:53:00.848Z,80.50
2022-10-21T04:55:28.851Z,80.54
2022-10-21T04:57:55.589Z,80.70
2022-10-21T05:00:22.671Z,80.44
2022-10-21T05:02:49.437Z,80.54
2022-10-21T05:05:16.456Z,80.77
2022-10-21T05:07:43.483Z,80.66
2022-10-21T05:10:10.400Z,80.72
2022-10-21T05:12:37.382Z,80.92
2022-10-21T05:15:04.395Z,80.93
2022-10-21T05:17:31.439Z,81.04
2022-10-21T05:19:58.283Z,81.03
2022-10-21T05:22:25.252Z,81.02
2022-10-21T05:24:52.052Z,80.99
2022-10-21T05:27:18.976Z,81.11
2022-10-21T05:29:45.843Z,81.11
2022-10-21T05:32:12.619Z,80.93
2022-10-21T05:34:39.578Z,81.06
2022-10-21T05:37:07.270Z,81.05
2022-10-21T05:39:34.022Z,81.17
2022-10-21T05:42:02.330Z,81.13
2022-10-21T05:44:29.353Z,81.28
2022-10-21T05:46:56.364Z,81.13
2022-10-21T05:49:23.200Z,81.17
2022-10-21T05:51:50.011Z,80.98
2022-10-21T05:54:17.208Z,80.87
2022-10-21T05:56:44.037Z,80.81
2022-10-21T05:59:11.380Z,80.72
2022-10-21T06:01:39.547Z,80.50
2022-10-21T06:04:06.613Z,80.60
2022-10-21T06:06:33.480Z,80.66
2022-10-21T06:09:01.051Z,80.70
2022-10-21T06:11:27.883Z,81.20
2022-10-21T06:13:54.616Z,81.20
2022-10-21T06:16:21.440Z,81.16
2022-10-21T06:18:48.566Z,81.27
2022-10-21T06:21:15.551Z,81.31
2022-10-21T06:23:42.360Z,81.44
2022-10-21T06:26:12.164Z,81.31
2022-10-21T06:28:40.135Z,81.30
2022-10-21T06:31:07.669Z,81.32
2022-10-21T06:33:34.686Z,81.74
2022-10-21T06:36:01.621Z,81.86
2022-10-21T06:38:28.398Z,82.08
2022-10-21T06:41:02.588Z,82.68
2022-10-21T06:43:29.671Z,82.98
2022-10-21T06:46:03.608Z,83.27
2022-10-21T06:48:30.974Z,83.33
2022-10-21T06:50:58.698Z,83.38
2022-10-21T06:53:27.283Z,83.34
2022-10-21T06:56:20.432Z,83.25
2022-10-21T06:58:49.256Z,83.13
2022-10-21T07:01:34.273Z,82.75
2022-10-21T07:04:08.736Z,82.64
2022-10-21T07:06:36.177Z,82.68
2022-10-21T07:09:04.072Z,82.40
2022-10-21T07:11:31.184Z,82.31
2022-10-21T07:13:59.957Z,82.40
2022-10-21T07:16:28.155Z,82.20
2022-10-21T07:18:55.325Z,82.09
2022-10-21T07:21:23.843Z,81.62
2022-10-21T07:23:56.492Z,81.35
2022-10-21T07:26:26.941Z,81.21
2022-10-21T07:28:54.878Z,80.84
2022-10-21T07:31:22.017Z,80.72
2022-10-21T07:33:49.198Z,80.52
2022-10-21T07:36:24.033Z,80.13
2022-10-21T07:38:51.951Z,79.98
2022-10-21T07:41:20.826Z,79.88
2022-10-21T07:43:48.250Z,79.82
2022-10-21T07:46:15.352Z,79.40
2022-10-21T07:48:42.430Z,78.82
2022-10-21T07:51:11.112Z,78.62
2022-10-21T07:53:38.663Z,78.41
2022-10-21T07:56:06.934Z,78.45
2022-10-21T07:58:33.945Z,78.37
2022-10-21T08:01:01.867Z,77.67
2022-10-21T08:03:28.711Z,77.31
2022-10-21T08:05:56.024Z,77.31
2022-10-21T08:08:26.042Z,77.25
2022-10-21T08:10:54.899Z,76.94
2022-10-21T08:13:21.789Z,77.12
2022-10-21T08:15:51.851Z,76.33
2022-10-21T08:18:19.292Z,76.71
2022-10-21T08:20:47.556Z,76.30
2022-10-21T08:23:15.604Z,75.82
2022-10-21T08:25:47.430Z,75.82
2022-10-21T08:28:14.607Z,75.49
2022-10-21T08:30:41.892Z,75.39
2022-10-21T08:33:08.904Z,75.54
2022-10-21T08:35:35.613Z,75.47
2022-10-21T08:38:02.691Z,75.43
2022-10-21T08:40:31.783Z,75.36
2022-10-21T08:43:06.460Z,74.59
2022-10-21T08:45:41.638Z,74.56
2022-10-21T08:48:10.841Z,74.42
2022-10-21T08:50:40.386Z,74.37
2022-10-21T08:53:27.495Z,74.01
2022-10-21T08:55:58.636Z,73.34
2022-10-21T08:58:25.351Z,73.03
2022-10-21T09:00:58.956Z,72.68
2022-10-21T09:03:28.533Z,72.55
2022-10-21T09:06:03.819Z,72.41
2022-10-21T09:08:44.037Z,72.34
2022-10-21T09:11:26.948Z,71.73
2022-10-21T09:13:59.754Z,71.41
2022-10-21T09:16:32.643Z,71.50
2022-10-21T09:19:05.997Z,71.45
2022-10-21T09:21:48.157Z,70.88
2022-10-21T09:24:33.818Z,70.66
2022-10-21T09:27:02.101Z,70.12
2022-10-21T09:29:37.067Z,70.15
2022-10-21T09:32:13.069Z,69.81
2022-10-21T09:34:49.047Z,69.17
2022-10-21T09:37:23.932Z,68.83
2022-10-21T09:40:03.333Z,68.52
2022-10-21T09:42:46.465Z,67.85
2022-10-21T09:45:21.413Z,67.47
2022-10-21T09:47:52.346Z,67.40
2022-10-21T09:50:19.373Z,66.89
2022-10-21T09:52:53.466Z,66.78
2022-10-21T09:55:20.567Z,67.90
2022-10-21T09:57:47.273Z,66.79
2022-10-21T10:00:14.426Z,66.70
2022-10-21T10:02:44.285Z,65.92
2022-10-21T10:05:29.829Z,65.43
2022-10-21T10:07:56.593Z,64.82
2022-10-21T10:10:32.236Z,64.56
2022-10-21T10:13:00.022Z,64.27
2022-10-21T10:15:35.192Z,64.55
2022-10-21T10:18:02.172Z,64.55
2022-10-21T10:20:29.147Z,64.06
2022-10-21T10:22:59.186Z,63.20
2022-10-21T10:25:30.086Z,63.18
2022-10-21T10:27:56.957Z,62.72
2022-10-21T10:30:24.984Z,62.72
2022-10-21T10:32:52.634Z,63.18
2022-10-21T10:35:33.414Z,63.40
2022-10-21T10:38:02.740Z,63.30
2022-10-21T10:40:39.620Z,62.85
2022-10-21T10:43:08.048Z,62.79
2022-10-21T10:45:34.905Z,62.85
2022-10-21T10:48:06.057Z,62.82
2022-10-21T10:50:47.456Z,62.11
2022-10-21T10:56:34.057Z,61.14
2022-10-21T10:59:04.156Z,60.87
2022-10-21T11:01:33.318Z,60.38
2022-10-21T11:04:13.347Z,60.00
2022-10-21T11:06:42.490Z,59.82
2022-10-21T11:09:09.565Z,59.11
2022-10-21T11:11:39.116Z,58.53
2022-10-21T11:14:11.549Z,58.63
2022-10-21T11:17:00.697Z,58.84
2022-10-21T11:19:31.158Z,58.51
2022-10-21T11:22:07.067Z,58.25
2022-10-21T11:24:53.038Z,58.67
2022-10-21T11:27:38.446Z,58.85
2022-10-21T11:30:19.994Z,59.10
2022-10-21T11:33:02.899Z,58.42
2022-10-21T11:35:46.526Z,58.39
2022-10-21T11:38:28.656Z,57.75
2022-10-21T11:41:03.652Z,58.26
2022-10-21T11:43:36.639Z,57.76
2022-10-21T11:46:06.663Z,57.07
2022-10-21T11:48:51.265Z,56.28
2022-10-21T11:51:34.375Z,56.47
2022-10-21T11:54:08.644Z,56.13
2022-10-21T11:56:43.245Z,56.85
2022-10-21T11:59:28.994Z,57.03
2022-10-21T12:02:14.361Z,57.35
2022-10-21T12:04:47.319Z,57.48
2022-10-21T12:07:24.041Z,57.61
2022-10-21T12:09:55.339Z,57.90
2022-10-21T12:12:42.690Z,57.92
2022-10-21T12:15:17.691Z,57.07
2022-10-21T12:17:45.634Z,57.11
2022-10-21T12:20:22.805Z,57.64
2022-10-21T12:22:58.502Z,57.12
2022-10-21T12:25:44.213Z,57.04
2022-10-21T12:28:18.833Z,56.91
2022-10-21T12:31:00.917Z,57.08
2022-10-21T12:33:44.564Z,56.89
2022-10-21T12:36:18.041Z,56.42
2022-10-21T12:38:44.876Z,56.80
2022-10-21T12:41:24.046Z,56.94
2022-10-21T12:43:56.963Z,56.75
2022-10-21T12:46:25.299Z,56.79
2022-10-21T12:48:52.567Z,56.18
2022-10-21T12:51:32.692Z,56.20
2022-10-21T12:53:59.521Z,56.11
2022-10-21T12:56:35.420Z,55.94
2022-10-21T12:59:05.207Z,56.57
2022-10-21T13:01:39.052Z,56.13
2022-10-21T13:04:25.845Z,55.27
2022-10-21T13:06:56.863Z,55.65
2022-10-21T13:09:35.917Z,55.81
2022-10-21T13:12:09.114Z,55.61
2022-10-21T13:14:42.267Z,55.57
2022-10-21T13:17:21.423Z,55.33
2022-10-21T13:19:48.301Z,55.62
2022-10-21T13:22:20.987Z,55.57
2022-10-21T13:24:48.903Z,55.71
2022-10-21T13:27:30.114Z,55.42
2022-10-21T13:29:58.459Z,55.87
2022-10-21T13:32:29.642Z,55.58
2022-10-21T13:35:19.244Z,55.54
2022-10-21T13:37:55.345Z,55.27
2022-10-21T13:40:30.406Z,55.23
2022-10-21T13:42:59.759Z,55.60
2022-10-21T13:45:31.746Z,55.51
2022-10-21T13:48:15.768Z,55.74
2022-10-21T13:50:43.815Z,55.15
2022-10-21T13:53:22.382Z,54.91
2022-10-21T13:56:03.031Z,54.65
2022-10-21T13:58:31.711Z,54.50
2022-10-21T14:01:06.865Z,54.44
2022-10-21T14:03:34.667Z,53.98
2022-10-21T14:06:02.212Z,54.42
2022-10-21T14:08:37.867Z,54.54
2022-10-21T14:11:08.718Z,54.78
2022-10-21T14:13:36.934Z,54.09
2022-10-21T14:16:04.939Z,53.74
2022-10-21T14:18:37.090Z,53.59
2022-10-21T14:21:04.853Z,53.66
2022-10-21T14:23:33.896Z,53.74
2022-10-21T14:26:05.608Z,53.70
2022-10-21T14:28:33.200Z,53.51
2022-10-21T14:31:01.622Z,53.49
2022-10-21T14:33:29.093Z,53.63
2022-10-21T14:36:08.380Z,53.85
2022-10-21T14:38:59.122Z,53.87
2022-10-21T14:41:36.425Z,53.75
2022-10-21T14:44:14.500Z,54.06
2022-10-21T14:46:43.161Z,53.67
2022-10-21T14:49:20.338Z,53.87
2022-10-21T14:51:47.583Z,54.00
2022-10-21T14:54:25.137Z,54.05
2022-10-21T14:56:52.398Z,53.92
2022-10-21T14:59:22.439Z,54.37
2022-10-21T15:01:49.628Z,54.52
2022-10-21T15:04:36.694Z,55.02
2022-10-21T15:07:03.915Z,55.68
2022-10-21T15:09:30.653Z,56.25
2022-10-21T15:12:16.209Z,56.34
2022-10-21T15:14:42.952Z,56.93
2022-10-21T15:17:10.510Z,57.30
2022-10-21T15:19:37.466Z,57.83
2022-10-21T15:22:05.222Z,58.07
2022-10-21T15:24:51.531Z,58.58
2022-10-21T15:27:24.481Z,58.94
2022-10-21T15:29:51.416Z,59.26
2022-10-21T15:32:22.205Z,59.47
2022-10-21T15:34:52.258Z,59.70
2022-10-21T15:37:19.289Z,60.36
2022-10-21T15:39:46.372Z,60.40
2022-10-21T15:42:14.837Z,60.58
2022-10-21T15:44:46.854Z,61.01
2022-10-21T15:47:13.709Z,61.44
2022-10-21T15:49:43.334Z,61.46
2022-10-21T15:52:10.621Z,61.72
2022-10-21T15:54:37.435Z,62.10
2022-10-21T15:57:13.240Z,61.96
2022-10-21T15:59:40.139Z,62.06
2022-10-21T16:02:14.005Z,62.38
2022-10-21T16:04:43.952Z,62.46
2022-10-21T16:07:21.494Z,63.15
2022-10-21T16:09:48.489Z,63.62
2022-10-21T16:12:16.828Z,63.60
2022-10-21T16:14:43.658Z,63.91
2022-10-21T16:17:12.715Z,64.23
2022-10-21T16:19:40.608Z,64.71
2022-10-21T16:22:13.273Z,64.63
2022-10-21T16:24:40.126Z,64.95
2022-10-21T16:27:10.090Z,64.97
2022-10-21T16:29:37.222Z,64.70
2022-10-21T16:32:04.053Z,65.00
2022-10-21T16:34:30.898Z,64.87
2022-10-21T16:36:57.715Z,64.70
2022-10-21T16:39:25.558Z,65.16
2022-10-21T16:41:52.644Z,65.43
2022-10-21T16:44:20.669Z,65.50
2022-10-21T16:46:55.042Z,65.69
2022-10-21T16:49:25.803Z,65.55
2022-10-21T16:51:53.450Z,65.65
2022-10-21T16:54:21.310Z,65.44
2022-10-21T16:56:48.163Z,65.52
2022-10-21T16:59:14.878Z,65.43
2022-10-21T17:01:41.711Z,65.28
2022-10-21T17:04:08.636Z,65.17
2022-10-21T17:06:35.417Z,64.94
2022-10-21T17:09:02.534Z,65.30
2022-10-21T17:11:33.613Z,65.07
2022-10-21T17:14:01.202Z,65.12
2022-10-21T17:16:28.207Z,65.01
2022-10-21T17:18:54.990Z,65.10
2022-10-21T17:21:23.610Z,64.99
2022-10-21T17:23:51.032Z,65.35
2022-10-21T17:26:18.295Z,65.44
2022-10-21T17:28:45.588Z,65.59
2022-10-21T17:31:16.406Z,65.72
2022-10-21T17:33:43.338Z,65.79
2022-10-21T17:36:10.147Z,65.97
2022-10-21T17:38:36.979Z,66.33
2022-10-21T17:41:03.861Z,66.54
2022-10-21T17:43:30.590Z,66.93
2022-10-21T17:45:57.787Z,67.02
2022-10-21T17:48:25.366Z,67.11
2022-10-21T17:50:56.026Z,67.12
2022-10-21T17:53:23.084Z,67.28
2022-10-21T17:55:59.920Z,67.28
2022-10-21T17:58:28.175Z,67.33
2022-10-21T18:00:57.841Z,67.34
2022-10-21T18:03:28.395Z,67.46
2022-10-21T18:05:55.706Z,67.71
2022-10-21T18:08:23.061Z,67.61
2022-10-21T18:10:59.910Z,67.49
2022-10-21T18:13:27.678Z,67.76
2022-10-21T18:15:55.179Z,68.04
2022-10-21T18:18:22.605Z,67.95
2022-10-21T18:20:49.489Z,68.06
2022-10-21T18:23:16.290Z,68.20
2022-10-21T18:25:43.062Z,68.25
2022-10-21T18:28:09.981Z,68.29
2022-10-21T18:30:41.705Z,68.33
2022-10-21T18:33:08.555Z,68.22
2022-10-21T18:35:35.523Z,68.43
2022-10-21T18:38:02.250Z,68.49
2022-10-21T18:40:29.294Z,68.55
2022-10-21T18:42:56.170Z,68.81
2022-10-21T18:45:22.913Z,68.60
2022-10-21T18:47:51.576Z,68.74
2022-10-21T18:50:18.387Z,68.73
2022-10-21T18:52:45.164Z,68.80
2022-10-21T18:55:12.043Z,69.02
2022-10-21T18:57:39.133Z,69.00
2022-10-21T19:00:07.918Z,69.12
2022-10-21T19:02:35.001Z,69.09
2022-10-21T19:05:02.438Z,69.12
2022-10-21T19:07:29.846Z,69.21
2022-10-21T19:09:56.562Z,69.27
2022-10-21T19:12:23.898Z,69.34
2022-10-21T19:14:50.932Z,69.53
2022-10-21T19:17:19.076Z,69.61
2022-10-21T19:19:45.839Z,69.58
2022-10-21T19:22:14.717Z,69.72
2022-10-21T19:24:41.662Z,69.78
2022-10-21T19:27:08.727Z,69.69
2022-10-21T19:29:35.803Z,69.82
2022-10-21T19:32:02.499Z,69.96
2022-10-21T19:34:29.322Z,70.10
2022-10-21T19:36:56.183Z,70.12
2022-10-21T19:39:22.939Z,69.95
2022-10-21T19:41:49.706Z,70.09
2022-10-21T19:44:16.524Z,70.18
2022-10-21T19:46:44.648Z,70.52
2022-10-21T19:49:12.451Z,70.51
2022-10-21T19:51:39.389Z,70.82
2022-10-21T19:54:06.919Z,71.12
2022-10-21T19:56:34.675Z,71.23
2022-10-21T19:59:05.095Z,71.44
2022-10-21T20:01:32.766Z,71.49
2022-10-21T20:04:00.440Z,71.33
2022-10-21T20:06:32.071Z,71.38
2022-10-21T20:09:00.681Z,71.81
2022-10-21T20:11:27.798Z,71.72
2022-10-21T20:13:55.042Z,72.34
2022-10-21T20:16:22.077Z,72.31
2022-10-21T20:18:49.335Z,72.55
2022-10-21T20:21:16.697Z,72.83
2022-10-21T20:23:43.477Z,72.89
2022-10-21T20:26:10.215Z,72.84
2022-10-21T20:28:37.373Z,73.08
2022-10-21T20:31:08.684Z,73.24
2022-10-21T20:33:36.855Z,73.35
2022-10-21T20:36:04.871Z,73.42
2022-10-21T20:38:32.242Z,73.49
2022-10-21T20:41:02.555Z,73.67
2022-10-21T20:43:30.102Z,73.65
2022-10-21T20:45:59.844Z,73.59
2022-10-21T20:48:26.974Z,73.80
2022-10-21T20:51:08.079Z,73.71
2022-10-21T20:53:35.826Z,74.36
2022-10-21T20:56:03.779Z,74.29
2022-10-21T20:58:33.364Z,74.45
2022-10-21T21:01:05.926Z,74.42
2022-10-21T21:03:32.932Z,74.54
2022-10-21T21:06:02.961Z,74.61
2022-10-21T21:08:29.759Z,74.58
2022-10-21T21:11:00.707Z,74.71
2022-10-21T21:13:27.466Z,74.85
2022-10-21T21:16:05.102Z,74.86
2022-10-21T21:18:32.028Z,75.02
2022-10-21T21:23:30.026Z,75.47
2022-10-21T21:26:01.711Z,75.40
2022-10-21T21:28:31.568Z,75.43
2022-10-21T21:31:01.164Z,75.49
2022-10-21T21:33:27.956Z,75.25
2022-10-21T21:35:56.260Z,75.36
2022-10-21T21:38:24.252Z,75.68
2022-10-21T21:40:51.076Z,75.93
2022-10-21T21:43:18.095Z,76.13
2022-10-21T21:45:45.475Z,76.53
2022-10-21T21:48:12.703Z,76.45
2022-10-21T21:50:39.835Z,76.44
2022-10-21T21:53:07.410Z,76.48
2022-10-21T21:55:34.350Z,76.54
2022-10-21T21:58:01.255Z,76.56
2022-10-21T22:00:28.392Z,76.51
2022-10-21T22:02:55.204Z,76.68
2022-10-21T22:05:26.148Z,76.65
2022-10-21T22:07:54.123Z,76.72
2022-10-21T22:10:21.071Z,76.93
2022-10-21T22:12:47.783Z,76.82
2022-10-21T22:15:29.675Z,76.95
2022-10-21T22:18:01.620Z,76.83
2022-10-21T22:20:28.515Z,76.71
2022-10-21T22:22:55.374Z,76.74
2022-10-21T22:25:22.098Z,76.85
2022-10-21T22:27:48.907Z,76.87
2022-10-21T22:30:16.086Z,76.98
2022-10-21T22:32:43.042Z,76.86
2022-10-21T22:35:09.906Z,77.12
2022-10-21T22:37:39.273Z,77.26
2022-10-21T22:40:07.090Z,77.32
2022-10-21T22:42:33.868Z,77.36
2022-10-21T22:45:00.691Z,77.54
2022-10-21T22:47:27.600Z,77.50
2022-10-21T22:49:54.457Z,77.73
2022-10-21T22:52:21.349Z,77.72
2022-10-21T22:54:49.828Z,77.76
2022-10-21T22:57:17.190Z,77.88
2022-10-21T22:59:48.291Z,78.00
2022-10-21T23:02:17.908Z,78.06
2022-10-21T23:04:44.675Z,78.08
2022-10-21T23:07:11.418Z,78.20
2022-10-21T23:09:38.346Z,78.26
2022-10-21T23:12:05.225Z,78.32
2022-10-21T23:14:31.970Z,78.11
2022-10-21T23:16:58.768Z,78.18
2022-10-21T23:19:25.734Z,78.28
2022-10-21T23:21:52.423Z,78.33
2022-10-21T23:24:19.367Z,78.49
2022-10-21T23:26:46.090Z,78.73
2022-10-21T23:29:13.074Z,78.92
2022-10-21T23:31:39.810Z,78.83
2022-10-21T23:34:06.731Z,78.92
2022-10-21T23:36:34.639Z,79.04
2022-10-21T23:39:02.066Z,79.07
2022-10-21T23:41:28.903Z,78.98
2022-10-21T23:43:55.886Z,79.18
2022-10-21T23:46:22.902Z,79.25
2022-10-21T23:48:50.163Z,79.39
2022-10-21T23:51:17.111Z,79.43
2022-10-21T23:53:43.874Z,79.40
2022-10-21T23:56:10.715Z,79.42
2022-10-21T23:58:37.461Z,79.42
